Time;durP1;ratioP1;P1;durP2;ratioP2;P2;SDS_P1;SDS_P2;PMS_P1;PMS_P2;Temp;Humidity;BMP_temperature;BMP_pressure;BME280_temperature;BME280_humidity;BME280_pressure;Samples;Min_cycle;Max_cycle;Signal;HPM_P1;HPM_P2
2021/07/08 00:02:52;;;;;;;1.80;1.13;;;;;;;17.96;43.68;101434.13;7851143;29;20039;-71
2021/07/08 00:06:42;;;;;;;4.90;1.30;;;;;;;17.88;43.73;101439.28;7852077;28;20031;-70
2021/07/08 00:10:42;;;;;;;11.27;1.42;;;;;;;17.88;43.61;101441.94;7852524;28;20454;-69
2021/07/08 00:14:34;;;;;;;7.57;1.30;;;;;;;17.85;43.89;101442.22;7852533;29;20222;-71
2021/07/08 00:18:27;;;;;;;2.97;1.15;;;;;;;17.82;43.91;101438.97;7851200;28;20033;-70
2021/07/08 00:22:18;;;;;;;5.07;1.42;;;;;;;17.77;44.11;101443.88;7851951;28;20039;-71
2021/07/08 00:26:08;;;;;;;7.07;1.40;;;;;;;17.72;44.20;101438.94;7852473;28;20140;-70
2021/07/08 00:29:59;;;;;;;1.45;1.15;;;;;;;17.69;43.80;101444.53;7850708;29;20043;-70
2021/07/08 00:33:50;;;;;;;4.75;1.40;;;;;;;17.64;44.14;101449.38;7851322;28;20043;-70
2021/07/08 00:37:41;;;;;;;4.63;1.17;;;;;;;17.59;44.22;101456.88;7851817;28;20031;-70
2021/07/08 00:41:31;;;;;;;5.35;1.50;;;;;;;17.53;44.50;101452.94;7851907;28;20031;-71
2021/07/08 00:45:23;;;;;;;3.30;1.42;;;;;;;17.48;44.49;101446.34;7851318;28;20061;-71
2021/07/08 00:49:16;;;;;;;2.75;1.23;;;;;;;17.40;44.48;101443.53;7851359;29;20047;-70
2021/07/08 00:53:06;;;;;;;5.13;1.27;;;;;;;17.39;44.45;101450.66;7850933;29;20185;-71
2021/07/08 00:56:57;;;;;;;2.15;1.17;;;;;;;17.35;44.42;101453.69;7851467;28;20090;-71
2021/07/08 01:00:49;;;;;;;3.97;1.60;;;;;;;17.31;44.82;101452.28;7851766;28;20038;-71
2021/07/08 01:04:44;;;;;;;3.25;1.52;;;;;;;17.23;44.65;101438.81;7851397;29;20085;-70
2021/07/08 01:08:34;;;;;;;3.75;1.50;;;;;;;17.22;45.12;101445.94;7851235;28;20043;-70
2021/07/08 01:12:25;;;;;;;6.05;1.30;;;;;;;17.20;45.12;101447.00;7850921;29;20034;-69
2021/07/08 01:16:31;;;;;;;1.65;1.05;;;;;;;17.16;44.95;101450.91;7849270;28;20099;-70
2021/07/08 01:20:25;;;;;;;4.10;1.17;;;;;;;17.13;45.02;101444.06;7848805;29;20054;-69
2021/07/08 01:24:16;;;;;;;2.10;1.33;;;;;;;17.09;45.15;101440.81;7850154;29;20037;-70
2021/07/08 01:28:07;;;;;;;3.40;1.70;;;;;;;17.02;45.24;101428.19;7850127;28;20035;-71
2021/07/08 01:31:58;;;;;;;4.85;1.20;;;;;;;17.02;45.25;101436.16;7850249;29;20054;-69
2021/07/08 01:35:48;;;;;;;4.50;1.30;;;;;;;16.99;45.45;101429.28;7849841;28;20057;-70
2021/07/08 01:39:39;;;;;;;3.15;1.77;;;;;;;16.96;45.50;101426.88;7850033;29;20035;-70
2021/07/08 01:43:37;;;;;;;3.13;1.20;;;;;;;16.95;45.70;101434.97;7849149;28;20503;-70
2021/07/08 01:47:27;;;;;;;;;;;;;;;16.79;45.37;101426.59;7865092;28;20031;-68
2021/07/08 01:51:30;;;;;;;4.65;1.17;;;;;;;16.85;45.68;101429.59;7849921;28;19918;-70
2021/07/08 01:55:21;;;;;;;5.80;1.60;;;;;;;16.82;45.74;101429.00;7849299;28;20453;-71
2021/07/08 01:59:12;;;;;;;1.48;1.08;;;;;;;16.80;45.80;101426.47;7849898;28;20507;-70
2021/07/08 02:03:03;;;;;;;3.45;1.10;;;;;;;16.79;45.98;101429.22;7849252;29;20580;-71
2021/07/08 02:06:53;;;;;;;5.32;1.20;;;;;;;16.74;45.97;101424.31;7850069;28;20034;-71
2021/07/08 02:10:44;;;;;;;3.22;1.10;;;;;;;16.72;46.01;101428.91;7847278;29;20042;-70
2021/07/08 02:14:35;;;;;;;6.38;1.27;;;;;;;16.72;45.89;101438.69;7848366;29;20030;-70
2021/07/08 02:18:25;;;;;;;1.98;1.40;;;;;;;16.60;45.94;101430.78;7848844;28;20026;-70
2021/07/08 02:22:16;;;;;;;3.40;1.05;;;;;;;16.61;46.01;101444.88;7849130;28;20035;-71
2021/07/08 02:26:07;;;;;;;3.55;1.27;;;;;;;16.56;46.22;101442.63;7848655;28;20058;-70
2021/07/08 02:29:58;;;;;;;2.05;1.25;;;;;;;16.53;46.53;101442.84;7849293;28;20030;-70
2021/07/08 02:33:48;;;;;;;3.65;1.00;;;;;;;16.48;46.33;101439.75;7848815;28;20035;-70
2021/07/08 02:37:39;;;;;;;3.60;1.52;;;;;;;16.43;46.41;101439.28;7849274;28;20035;-70
2021/07/08 02:41:30;;;;;;;4.78;1.65;;;;;;;16.39;46.42;101435.19;7848898;28;20118;-70
2021/07/08 02:45:23;;;;;;;1.17;1.08;;;;;;;16.29;46.54;101428.94;7848505;28;20503;-71
2021/07/08 02:49:14;;;;;;;5.50;1.27;;;;;;;16.31;46.65;101434.13;7848637;28;20027;-70
2021/07/08 02:53:05;;;;;;;5.15;1.20;;;;;;;16.26;46.29;101436.31;7849225;29;20058;-70
2021/07/08 02:56:55;;;;;;;5.03;1.85;;;;;;;16.21;46.52;101443.78;7851760;28;20058;-70
2021/07/08 03:00:48;;;;;;;1.80;1.23;;;;;;;16.16;46.75;101438.88;7854919;29;20035;-70
2021/07/08 03:04:38;;;;;;;9.85;1.80;;;;;;;16.09;46.75;101433.19;7855754;29;20062;-70
2021/07/08 03:08:29;;;;;;;3.08;1.40;;;;;;;16.07;46.79;101444.88;7854342;28;20039;-71
2021/07/08 03:12:19;;;;;;;3.63;1.20;;;;;;;16.01;46.93;101451.50;7854668;29;21065;-69
2021/07/08 03:16:10;;;;;;;3.67;1.20;;;;;;;15.94;46.79;101446.81;7854497;28;20046;-71
2021/07/08 03:20:02;;;;;;;2.88;1.30;;;;;;;15.91;46.99;101452.38;7854334;29;20031;-72
2021/07/08 03:23:53;;;;;;;4.68;1.50;;;;;;;15.92;47.16;101469.94;7853545;28;20058;-72
2021/07/08 03:27:44;;;;;;;3.28;1.42;;;;;;;15.90;47.27;101470.06;7848027;28;20586;-72
2021/07/08 03:31:35;;;;;;;2.10;1.17;;;;;;;15.88;47.40;101471.97;7854261;28;20428;-71
2021/07/08 03:35:27;;;;;;;1.67;1.30;;;;;;;15.83;47.56;101462.72;7853007;28;20568;-71
2021/07/08 03:39:18;;;;;;;2.60;1.27;;;;;;;15.86;47.51;101460.69;7852721;28;20027;-72
2021/07/08 03:43:09;;;;;;;3.72;1.48;;;;;;;15.81;47.46;101462.00;7852493;29;20089;-72
2021/07/08 03:46:59;;;;;;;1.88;1.38;;;;;;;15.76;47.58;101459.72;7851844;28;20122;-73
2021/07/08 03:50:50;;;;;;;5.60;1.77;;;;;;;15.78;47.58;101476.34;7852146;29;20086;-72
2021/07/08 03:54:41;;;;;;;2.88;1.40;;;;;;;15.74;47.59;101472.25;7853140;29;20039;-72
2021/07/08 03:58:31;;;;;;;5.97;1.63;;;;;;;15.68;47.61;101472.72;7851626;28;20025;-73
2021/07/08 04:02:22;;;;;;;4.32;1.30;;;;;;;15.66;47.82;101477.31;7852914;29;20065;-72
2021/07/08 04:06:12;;;;;;;3.50;1.10;;;;;;;15.67;47.80;101473.66;7851933;28;20041;-73
2021/07/08 04:10:03;;;;;;;3.33;1.98;;;;;;;15.66;47.88;101475.47;7853099;29;20035;-72
2021/07/08 04:13:54;;;;;;;3.47;1.42;;;;;;;15.67;48.12;101469.22;7851865;29;20027;-72
2021/07/08 04:17:45;;;;;;;4.60;1.48;;;;;;;15.68;48.12;101467.41;7852139;28;20031;-72
2021/07/08 04:21:36;;;;;;;2.40;1.40;;;;;;;15.70;48.44;101476.94;7850998;29;20487;-72
2021/07/08 04:25:27;;;;;;;6.38;1.38;;;;;;;15.70;48.47;101469.00;7851953;28;20613;-72
2021/07/08 04:29:17;;;;;;;2.67;1.65;;;;;;;15.76;48.50;101477.41;7851982;28;20064;-72
2021/07/08 04:33:08;;;;;;;4.90;1.58;;;;;;;15.80;48.72;101481.50;7850978;29;20031;-73
2021/07/08 04:37:00;;;;;;;1.80;1.40;;;;;;;15.87;48.74;101490.66;7851841;28;20034;-72
2021/07/08 04:40:51;;;;;;;5.60;1.38;;;;;;;15.87;48.67;101490.66;7851601;28;20083;-73
2021/07/08 04:44:42;;;;;;;2.30;1.30;;;;;;;15.95;48.79;101502.34;7851062;29;20535;-71
2021/07/08 04:48:33;;;;;;;6.30;1.67;;;;;;;15.94;49.02;101490.06;7851703;28;20062;-73
2021/07/08 04:52:23;;;;;;;4.70;1.80;;;;;;;16.01;49.04;101501.00;7851851;29;20042;-72
2021/07/08 04:56:14;;;;;;;6.90;1.73;;;;;;;16.04;49.03;101503.41;7850949;28;20595;-72
2021/07/08 05:00:07;;;;;;;3.97;1.80;;;;;;;16.03;49.04;101505.25;7849927;29;20090;-71
2021/07/08 05:04:00;;;;;;;6.80;1.67;;;;;;;16.06;49.10;101507.63;7851041;28;20033;-72
2021/07/08 05:07:53;;;;;;;4.50;1.90;;;;;;;16.10;49.28;101501.13;7851119;28;20061;-72
2021/07/08 05:11:44;;;;;;;2.95;1.67;;;;;;;16.14;49.40;101494.66;7850966;28;20039;-72
2021/07/08 05:15:36;;;;;;;4.43;2.13;;;;;;;16.17;49.47;101490.91;7850621;28;20066;-72
2021/07/08 05:19:29;;;;;;;2.92;1.85;;;;;;;16.20;49.44;101482.72;7848752;28;20035;-70
2021/07/08 05:23:24;;;;;;;6.82;2.17;;;;;;;16.25;49.76;101488.47;7850209;28;20039;-71
2021/07/08 05:27:16;;;;;;;5.45;2.20;;;;;;;16.34;49.61;101492.19;7850837;28;20035;-72
2021/07/08 05:31:07;;;;;;;4.07;2.10;;;;;;;16.43;49.57;101500.28;7849899;28;20031;-72
2021/07/08 05:34:57;;;;;;;4.05;1.92;;;;;;;16.49;49.71;101502.41;7848140;28;20031;-72
2021/07/08 05:38:48;;;;;;;6.20;2.50;;;;;;;16.53;49.91;101484.47;7849873;28;20031;-71
2021/07/08 05:42:39;;;;;;;4.32;2.33;;;;;;;16.64;49.86;101493.22;7849165;28;20031;-72
2021/07/08 05:46:29;;;;;;;5.18;1.80;;;;;;;16.70;49.99;101488.38;7849248;28;20027;-72
2021/07/08 05:50:20;;;;;;;3.63;1.70;;;;;;;16.82;49.92;101495.34;7849386;29;20042;-71
2021/07/08 05:54:11;;;;;;;2.78;1.52;;;;;;;16.85;50.14;101489.75;7849796;29;20090;-72
2021/07/08 05:58:01;;;;;;;7.90;2.05;;;;;;;17.01;50.00;101504.31;7848939;28;20082;-72
2021/07/08 06:01:52;;;;;;;6.78;2.10;;;;;;;17.10;50.10;101510.69;7849772;28;20090;-71
2021/07/08 06:05:44;;;;;;;4.15;1.73;;;;;;;17.26;50.08;101516.38;7849178;28;20167;-71
2021/07/08 06:09:34;;;;;;;3.03;1.65;;;;;;;17.40;50.27;101529.31;7849168;28;20654;-72
2021/07/08 06:13:25;;;;;;;3.67;1.73;;;;;;;17.45;49.95;101526.28;7863839;28;20067;-72
2021/07/08 06:17:16;;;;;;;5.22;1.90;;;;;;;17.51;50.08;101537.25;7848447;28;20728;-72
2021/07/08 06:21:06;;;;;;;2.47;1.58;;;;;;;17.54;50.13;101536.97;7849241;28;20035;-71
2021/07/08 06:24:57;;;;;;;3.70;1.83;;;;;;;17.64;50.08;101534.38;7848783;28;20046;-72
2021/07/08 06:28:47;;;;;;;3.22;1.52;;;;;;;17.95;50.20;101529.94;7848660;28;20031;-72
2021/07/08 06:32:38;;;;;;;3.08;1.63;;;;;;;18.51;50.12;101540.13;7848753;28;20039;-71
2021/07/08 06:36:29;;;;;;;5.68;1.50;;;;;;;19.05;49.65;101545.78;7848597;28;20074;-71
2021/07/08 06:40:19;;;;;;;4.20;1.63;;;;;;;19.52;49.35;101540.56;7848476;28;20023;-71
2021/07/08 06:44:10;;;;;;;7.68;1.95;;;;;;;19.63;49.10;101545.75;7843539;28;20506;-72
2021/07/08 06:48:02;;;;;;;6.10;1.80;;;;;;;19.61;48.93;101543.22;7842760;28;20067;-71
2021/07/08 06:51:53;;;;;;;6.18;2.20;;;;;;;19.82;49.10;101551.00;7848025;28;20027;-71
2021/07/08 06:55:43;;;;;;;10.38;2.80;;;;;;;20.40;48.69;101551.63;7849171;28;20045;-70
2021/07/08 06:59:34;;;;;;;2.15;1.42;;;;;;;20.95;48.28;101549.75;7841616;28;20039;-72
2021/07/08 07:03:27;;;;;;;7.43;2.53;;;;;;;21.58;47.77;101558.50;7849728;28;20538;-72
2021/07/08 07:07:18;;;;;;;10.10;1.88;;;;;;;22.12;47.34;101544.97;7848471;28;20027;-71
2021/07/08 07:11:10;;;;;;;12.85;5.68;;;;;;;22.42;46.80;101545.22;7846992;29;20435;-72
2021/07/08 07:15:00;;;;;;;16.85;7.40;;;;;;;22.54;46.39;101556.50;7845198;28;20611;-72
2021/07/08 07:18:51;;;;;;;6.90;3.63;;;;;;;22.71;46.40;101555.56;7848037;28;20027;-72
2021/07/08 07:22:45;;;;;;;4.68;2.30;;;;;;;22.78;46.09;101561.94;7848195;29;20042;-71
2021/07/08 07:26:36;;;;;;;5.25;1.80;;;;;;;22.62;45.75;101569.09;7847523;28;20035;-71
2021/07/08 07:30:27;;;;;;;4.13;2.03;;;;;;;22.35;45.69;101564.78;7841315;28;20109;-73
2021/07/08 07:34:18;;;;;;;4.65;1.52;;;;;;;22.13;46.01;101571.53;7837600;28;20031;-73
2021/07/08 07:38:11;;;;;;;7.72;1.90;;;;;;;22.16;45.90;101575.75;7820385;29;20046;-71
2021/07/08 07:42:03;;;;;;;6.20;2.03;;;;;;;22.53;45.68;101574.44;7850869;28;20070;-73
2021/07/08 07:45:54;;;;;;;7.22;1.65;;;;;;;22.91;44.84;101561.47;7840398;28;20038;-72
2021/07/08 07:49:45;;;;;;;9.93;1.75;;;;;;;22.94;44.93;101558.44;7841990;28;20039;-71
2021/07/08 07:53:35;;;;;;;3.50;1.45;;;;;;;22.75;44.70;101556.91;7842372;28;20110;-72
2021/07/08 07:57:26;;;;;;;3.97;1.63;;;;;;;22.44;44.53;101559.31;7843348;28;20624;-72
2021/07/08 08:01:17;;;;;;;4.75;1.60;;;;;;;22.28;44.72;101575.31;7840110;29;20407;-73
2021/07/08 08:05:21;;;;;;;5.28;2.10;;;;;;;22.15;44.96;101580.25;7838723;28;20035;-72
2021/07/08 08:09:12;;;;;;;4.03;1.60;;;;;;;22.01;44.82;101571.00;7842357;29;20047;-72
2021/07/08 08:13:04;;;;;;;3.47;1.60;;;;;;;21.89;44.81;101566.91;7840658;28;20027;-72
2021/07/08 08:16:54;;;;;;;2.92;1.50;;;;;;;21.93;44.89;101567.44;7841569;28;20420;-72
2021/07/08 08:20:45;;;;;;;5.82;1.48;;;;;;;21.98;44.70;101568.63;7839931;28;20027;-72
2021/07/08 08:24:36;;;;;;;7.78;1.75;;;;;;;21.92;44.68;101573.75;7838760;28;20071;-72
2021/07/08 08:28:27;;;;;;;4.10;2.00;;;;;;;21.86;44.50;101567.22;7841988;28;20374;-71
2021/07/08 08:32:18;;;;;;;3.60;1.73;;;;;;;21.99;44.40;101572.16;7840607;28;20027;-72
2021/07/08 08:36:08;;;;;;;6.15;2.15;;;;;;;22.32;44.30;101557.94;7836695;28;20033;-72
2021/07/08 08:40:00;;;;;;;2.42;1.45;;;;;;;22.89;43.57;101569.66;7839482;28;20043;-72
2021/07/08 08:43:50;;;;;;;6.65;2.15;;;;;;;23.42;43.23;101569.22;7839274;28;20039;-71
2021/07/08 08:47:51;;;;;;;4.07;1.73;;;;;;;23.62;42.68;101560.78;7840344;28;20731;-71
2021/07/08 08:51:42;;;;;;;8.70;2.00;;;;;;;23.48;42.83;101570.38;7841301;29;20078;-73
2021/07/08 08:55:35;;;;;;;2.95;1.70;;;;;;;23.38;42.83;101586.63;7837668;28;20042;-72
2021/07/08 08:59:25;;;;;;;3.42;1.40;;;;;;;23.20;43.09;101582.47;7841367;29;20037;-72
2021/07/08 09:03:22;;;;;;;2.95;1.38;;;;;;;23.05;43.39;101592.09;7838184;29;20047;-71
2021/07/08 09:07:27;;;;;;;2.78;1.27;;;;;;;23.08;43.64;101589.94;7841215;28;20043;-73
2021/07/08 09:11:22;;;;;;;4.70;1.48;;;;;;;23.34;43.54;101600.53;7840687;29;20027;-71
2021/07/08 09:15:19;;;;;;;;;;;;;;;23.26;43.97;101598.69;7840311;28;20031;-73
2021/07/08 09:19:17;;;;;;;3.78;1.30;;;;;;;23.36;43.31;101588.66;7840794;29;19980;-72
2021/07/08 09:23:14;;;;;;;4.45;1.60;;;;;;;23.43;43.11;101578.09;7837139;28;21714;-71
2021/07/08 09:27:10;;;;;;;3.20;1.48;;;;;;;23.53;42.91;101569.88;7835575;28;20039;-74
2021/07/08 09:31:03;;;;;;;4.07;2.10;;;;;;;23.63;43.37;101574.06;7833677;28;20028;-74
2021/07/08 09:34:57;;;;;;;3.25;1.88;;;;;;;23.73;43.21;101585.47;7834311;28;20055;-74
2021/07/08 09:38:48;;;;;;;5.70;1.95;;;;;;;23.83;42.50;101596.84;7836799;28;20496;-74
2021/07/08 09:42:45;;;;;;;7.40;1.50;;;;;;;23.91;42.65;101590.63;7836507;28;20117;-73
2021/07/08 09:46:36;;;;;;;2.20;1.30;;;;;;;23.99;42.45;101581.75;7836543;28;20110;-73
2021/07/08 09:50:30;;;;;;;8.48;1.70;;;;;;;24.09;42.57;101582.34;7835978;28;20055;-74
2021/07/08 09:54:45;;;;;;;1.70;1.27;;;;;;;24.15;41.94;101584.38;7834979;29;20051;-73
2021/07/08 09:58:51;;;;;;;2.33;1.40;;;;;;;24.19;41.97;101596.44;7835542;28;20411;-72
2021/07/08 10:02:42;;;;;;;1.55;1.15;;;;;;;24.25;42.23;101590.34;7832081;28;20031;-73
2021/07/08 10:06:35;;;;;;;3.38;1.40;;;;;;;24.29;42.08;101589.88;7836374;28;20111;-73
2021/07/08 10:10:27;;;;;;;5.47;1.50;;;;;;;24.34;42.19;101581.28;7836405;28;20058;-74
2021/07/08 10:14:19;;;;;;;2.80;1.52;;;;;;;24.37;42.17;101583.63;7835367;28;20038;-74
2021/07/08 10:18:12;;;;;;;3.58;1.50;;;;;;;24.39;41.91;101578.09;7835253;28;20038;-73
2021/07/08 10:22:03;;;;;;;1.63;1.30;;;;;;;24.41;41.53;101560.78;7835605;28;20031;-74
2021/07/08 10:25:54;;;;;;;5.32;1.52;;;;;;;24.44;41.72;101562.28;7836096;28;20043;-72
2021/07/08 10:29:47;;;;;;;2.55;1.40;;;;;;;24.45;41.55;101556.72;7835666;28;20094;-75
2021/07/08 10:33:37;;;;;;;4.80;1.17;;;;;;;24.41;41.14;101539.28;7833866;28;20055;-73
2021/07/08 10:37:33;;;;;;;1.63;1.20;;;;;;;24.50;41.07;101556.19;7836042;28;20039;-71
2021/07/08 10:41:27;;;;;;;2.47;1.55;;;;;;;24.49;40.94;101552.69;7835371;29;20039;-73
2021/07/08 10:45:38;;;;;;;3.03;1.20;;;;;;;24.46;40.65;101553.03;7834256;28;20047;-73
2021/07/08 10:49:40;;;;;;;2.80;1.25;;;;;;;24.48;40.87;101545.66;7833247;29;20079;-72
2021/07/08 10:53:41;;;;;;;3.00;1.60;;;;;;;24.52;40.85;101552.34;7833892;29;20030;-73
2021/07/08 10:57:37;;;;;;;4.22;2.00;;;;;;;24.54;40.69;101553.00;7850470;28;20067;-73
2021/07/08 11:01:37;;;;;;;4.10;1.17;;;;;;;24.55;40.46;101551.97;7833939;29;20122;-70
2021/07/08 11:05:54;;;;;;;6.32;1.67;;;;;;;24.49;40.46;101538.41;7837109;28;20046;-71
2021/07/08 11:10:03;;;;;;;3.10;1.17;;;;;;;24.42;40.42;101532.06;7835009;28;20043;-70
2021/07/08 11:13:56;;;;;;;3.85;1.65;;;;;;;24.43;40.62;101533.75;7836646;29;20185;-70
2021/07/08 11:17:48;;;;;;;3.85;1.27;;;;;;;24.41;40.11;101539.28;7841590;28;20067;-70
2021/07/08 11:21:53;;;;;;;2.60;1.25;;;;;;;24.45;39.61;101562.09;7842125;28;20038;-70
2021/07/08 11:25:44;;;;;;;2.10;1.10;;;;;;;24.46;39.69;101566.47;7841643;28;20035;-69
2021/07/08 11:29:35;;;;;;;2.58;1.33;;;;;;;24.46;40.11;101544.97;7843222;29;20031;-70
2021/07/08 11:33:27;;;;;;;2.35;1.63;;;;;;;24.45;40.13;101550.50;7843355;28;20061;-70
2021/07/08 11:37:24;;;;;;;4.00;1.73;;;;;;;24.47;40.35;101556.56;7844158;28;20031;-70
2021/07/08 11:41:15;;;;;;;3.45;1.60;;;;;;;24.41;39.89;101544.66;7842184;28;20031;-71
2021/07/08 11:45:14;;;;;;;5.95;1.30;;;;;;;24.38;39.71;101539.66;7841317;28;20719;-70
2021/07/08 11:49:05;;;;;;;2.33;1.27;;;;;;;24.30;40.09;101535.16;7840845;29;20039;-71
2021/07/08 11:53:06;;;;;;;1.33;1.23;;;;;;;24.27;39.87;101535.50;7841840;29;20037;-71
2021/07/08 11:56:57;;;;;;;2.78;1.20;;;;;;;24.25;39.61;101528.59;7843950;28;20067;-70
2021/07/08 12:00:49;;;;;;;2.10;1.20;;;;;;;24.21;40.18;101533.50;7843514;28;20042;-71
2021/07/08 12:04:40;;;;;;;2.97;1.30;;;;;;;24.19;40.07;101532.00;7841471;28;20404;-71
2021/07/08 12:08:33;;;;;;;5.05;1.40;;;;;;;24.16;39.78;101529.66;7844085;28;20592;-69
2021/07/08 12:12:24;;;;;;;3.15;1.30;;;;;;;24.23;39.83;101538.69;7844157;28;20043;-70
2021/07/08 12:16:19;;;;;;;2.13;1.23;;;;;;;24.25;40.14;101534.81;7846629;28;20042;-71
2021/07/08 12:20:10;;;;;;;3.10;1.45;;;;;;;24.23;39.99;101536.84;7843972;28;20091;-71
2021/07/08 12:24:18;;;;;;;3.10;1.55;;;;;;;24.23;39.75;101533.31;7841734;28;20094;-70
2021/07/08 12:28:09;;;;;;;;;;;;;;;24.05;40.54;101541.63;7842786;28;20078;-71
2021/07/08 12:32:01;;;;;;;2.40;1.15;;;;;;;24.19;39.76;101546.28;7852198;28;20409;-71
2021/07/08 12:35:53;;;;;;;4.55;1.13;;;;;;;24.20;40.04;101536.34;7841094;28;20403;-71
2021/07/08 12:39:46;;;;;;;2.47;1.45;;;;;;;24.14;39.94;101545.09;7840105;29;20031;-72
2021/07/08 12:43:48;;;;;;;1.67;1.10;;;;;;;24.14;40.14;101545.09;7840681;28;20111;-71
2021/07/08 12:47:42;;;;;;;3.50;1.60;;;;;;;24.11;39.96;101540.09;7842027;28;20035;-71
2021/07/08 12:51:39;;;;;;;4.72;1.20;;;;;;;24.08;39.91;101541.25;7841271;28;20039;-71
2021/07/08 12:55:43;;;;;;;3.97;1.52;;;;;;;24.10;40.27;101546.47;7840839;28;20050;-71
2021/07/08 12:59:58;;;;;;;3.55;1.40;;;;;;;24.10;39.56;101552.69;7842091;29;20146;-71
2021/07/08 13:03:48;;;;;;;3.05;1.13;;;;;;;24.10;39.81;101544.63;7836874;28;20062;-71
2021/07/08 13:07:46;;;;;;;2.30;1.30;;;;;;;24.11;39.88;101543.59;7841132;28;20035;-71
2021/07/08 13:11:37;;;;;;;2.38;1.30;;;;;;;24.07;39.77;101539.56;7842336;28;20035;-71
2021/07/08 13:15:28;;;;;;;2.83;1.33;;;;;;;24.01;39.63;101537.59;7839675;28;20034;-71
2021/07/08 13:19:18;;;;;;;1.67;0.98;;;;;;;23.97;39.53;101538.13;7840067;28;20827;-71
2021/07/08 13:23:18;;;;;;;1.42;1.00;;;;;;;23.87;39.83;101539.16;7840561;29;20037;-71
2021/07/08 13:27:09;;;;;;;5.60;1.50;;;;;;;23.84;39.70;101544.03;7841623;28;20583;-71
2021/07/08 13:31:05;;;;;;;1.90;1.02;;;;;;;23.79;39.62;101546.38;7842809;28;20035;-71
2021/07/08 13:34:56;;;;;;;0.88;0.85;;;;;;;23.71;39.79;101549.09;7839024;29;20038;-71
2021/07/08 13:38:51;;;;;;;3.35;1.30;;;;;;;23.64;39.95;101553.44;7840458;28;20031;-71
2021/07/08 13:42:41;;;;;;;3.92;1.30;;;;;;;23.58;39.94;101549.56;7840782;28;20202;-71
2021/07/08 13:46:36;;;;;;;1.38;1.27;;;;;;;23.53;39.86;101543.06;7838438;28;20042;-71
2021/07/08 13:50:29;;;;;;;12.93;1.50;;;;;;;23.48;40.39;101548.94;7841831;29;20027;-71
2021/07/08 13:54:33;;;;;;;2.38;1.20;;;;;;;23.40;41.12;101547.09;7840900;28;20023;-71
2021/07/08 13:58:24;;;;;;;1.83;1.13;;;;;;;23.40;41.17;101557.00;7842033;28;20090;-71
2021/07/08 14:02:15;;;;;;;2.20;1.42;;;;;;;23.37;41.12;101554.63;7839286;28;20094;-71
2021/07/08 14:06:06;;;;;;;2.03;1.33;;;;;;;23.31;41.69;101558.00;7838834;28;20031;-71
2021/07/08 14:09:57;;;;;;;8.00;1.52;;;;;;;23.25;41.88;101561.34;7840698;28;20042;-71
2021/07/08 14:13:48;;;;;;;2.60;1.48;;;;;;;23.20;42.07;101550.31;7837815;28;20039;-71
2021/07/08 14:17:39;;;;;;;2.38;1.20;;;;;;;23.15;42.36;101552.63;7839930;28;20213;-71
2021/07/08 14:21:29;;;;;;;1.88;1.50;;;;;;;23.08;42.42;101547.06;7839323;28;20693;-71
2021/07/08 14:25:20;;;;;;;3.95;1.92;;;;;;;23.06;42.48;101550.91;7836526;28;20035;-71
2021/07/08 14:29:11;;;;;;;3.65;1.80;;;;;;;22.99;42.97;101550.75;7839334;28;20102;-71
2021/07/08 14:33:02;;;;;;;3.80;1.75;;;;;;;22.98;42.58;101554.44;7836393;28;20043;-71
2021/07/08 14:36:53;;;;;;;2.38;1.50;;;;;;;22.93;42.99;101557.59;7839789;28;20499;-71
2021/07/08 14:40:44;;;;;;;2.80;1.67;;;;;;;22.84;43.18;101547.03;7837999;29;20058;-71
2021/07/08 14:44:40;;;;;;;4.05;1.55;;;;;;;22.84;43.54;101557.75;7835744;28;20032;-71
2021/07/08 14:48:30;;;;;;;2.95;1.33;;;;;;;22.81;43.49;101558.09;7835481;28;20533;-71
2021/07/08 14:52:21;;;;;;;3.10;1.73;;;;;;;22.75;43.71;101556.91;7845505;28;20058;-71
2021/07/08 14:56:12;;;;;;;2.47;1.80;;;;;;;22.74;43.81;101570.47;7845888;28;20046;-71
2021/07/08 15:00:04;;;;;;;3.53;1.95;;;;;;;22.72;44.00;101575.97;7847667;28;20395;-71
2021/07/08 15:03:55;;;;;;;2.40;1.70;;;;;;;22.69;44.03;101578.16;7844656;28;20676;-71
2021/07/08 15:07:45;;;;;;;3.13;2.00;;;;;;;22.67;44.23;101590.84;7848350;28;20085;-71
2021/07/08 15:11:36;;;;;;;5.45;1.80;;;;;;;22.65;44.60;101593.72;7847426;28;20045;-71
2021/07/08 15:15:28;;;;;;;5.57;3.03;;;;;;;22.62;44.57;101599.41;7847619;28;20027;-72
2021/07/08 15:19:18;;;;;;;6.13;2.55;;;;;;;22.60;44.74;101605.91;7847121;28;20395;-71
2021/07/08 15:23:09;;;;;;;4.70;2.47;;;;;;;22.56;44.66;101596.53;7847554;28;20495;-71
2021/07/08 15:27:00;;;;;;;6.63;2.60;;;;;;;22.54;44.82;101596.66;7845782;28;20054;-71
2021/07/08 15:30:51;;;;;;;2.75;1.73;;;;;;;22.50;44.94;101603.34;7847823;28;20507;-72
2021/07/08 15:34:44;;;;;;;7.85;2.30;;;;;;;22.48;45.10;101608.03;7860020;28;20035;-72
2021/07/08 15:38:35;;;;;;;5.60;2.40;;;;;;;22.44;44.96;101609.34;7850248;28;20423;-71
2021/07/08 15:42:25;;;;;;;5.13;1.90;;;;;;;22.40;45.17;101608.81;7849789;28;20042;-71
2021/07/08 15:46:16;;;;;;;6.18;1.70;;;;;;;22.35;45.14;101602.25;7847510;28;21040;-71
2021/07/08 15:50:07;;;;;;;2.80;1.77;;;;;;;22.31;45.07;101612.44;7850890;28;20514;-72
2021/07/08 15:53:57;;;;;;;5.18;2.22;;;;;;;22.26;45.18;101612.09;7849852;28;20047;-71
2021/07/08 15:57:48;;;;;;;17.25;2.70;;;;;;;22.22;45.18;101615.25;7848781;28;20111;-71
2021/07/08 16:01:39;;;;;;;7.25;1.75;;;;;;;22.13;45.11;101597.47;7844593;28;20031;-72
2021/07/08 16:05:30;;;;;;;7.20;2.33;;;;;;;22.12;44.85;101601.16;7842659;28;20434;-71
2021/07/08 16:09:20;;;;;;;3.65;1.70;;;;;;;22.06;44.99;101603.47;7844649;28;20662;-72
2021/07/08 16:13:11;;;;;;;4.60;1.60;;;;;;;22.00;44.68;101589.91;7842303;29;20203;-72
2021/07/08 16:17:05;;;;;;;4.97;1.95;;;;;;;21.99;44.94;101597.06;7840461;28;20039;-72
2021/07/08 16:20:55;;;;;;;3.65;1.50;;;;;;;21.87;45.21;101584.13;7843065;28;20109;-72
2021/07/08 16:24:46;;;;;;;5.05;1.45;;;;;;;21.90;45.33;101587.31;7843506;28;20027;-72
2021/07/08 16:28:37;;;;;;;4.50;1.67;;;;;;;21.87;45.53;101578.78;7843821;28;20447;-72
2021/07/08 16:32:27;;;;;;;2.30;1.70;;;;;;;21.79;45.56;101571.50;7841624;28;20638;-72
2021/07/08 16:36:18;;;;;;;3.35;1.83;;;;;;;21.77;45.26;101559.28;7839450;28;20698;-71
2021/07/08 16:40:14;;;;;;;2.50;1.55;;;;;;;21.68;45.10;101544.19;7842667;29;20031;-72
2021/07/08 16:44:05;;;;;;;3.70;1.90;;;;;;;21.73;45.39;101556.09;7856729;28;20047;-71
2021/07/08 16:47:58;;;;;;;1.50;1.40;;;;;;;21.70;45.31;101556.41;7843206;28;20034;-71
2021/07/08 16:51:48;;;;;;;5.05;1.95;;;;;;;21.66;45.41;101557.72;7841711;28;20119;-71
2021/07/08 16:55:39;;;;;;;4.35;1.80;;;;;;;21.62;45.30;101569.72;7840685;28;20055;-71
2021/07/08 16:59:33;;;;;;;2.25;1.42;;;;;;;21.57;45.06;101580.88;7843986;29;20063;-72
2021/07/08 17:03:25;;;;;;;1.90;1.00;;;;;;;21.53;44.92;101597.38;7836153;28;20027;-71
2021/07/08 17:07:16;;;;;;;2.03;1.27;;;;;;;21.45;44.81;101592.81;7841984;28;20023;-71
2021/07/08 17:11:07;;;;;;;1.65;1.30;;;;;;;21.40;45.09;101604.97;7856731;28;20066;-70
2021/07/08 17:14:57;;;;;;;2.75;1.30;;;;;;;21.33;44.87;101599.41;7840018;28;20043;-68
2021/07/08 17:18:48;;;;;;;2.35;0.98;;;;;;;21.30;44.72;101593.50;7840864;28;20557;-72
2021/07/08 17:22:42;;;;;;;1.48;1.05;;;;;;;21.26;44.79;101600.16;7842145;29;20114;-71
2021/07/08 17:26:33;;;;;;;1.75;0.98;;;;;;;21.20;44.93;101593.59;7841050;28;20062;-71
2021/07/08 17:30:23;;;;;;;2.55;1.00;;;;;;;21.14;44.89;101597.69;7841015;28;20039;-71
2021/07/08 17:34:14;;;;;;;1.23;1.00;;;;;;;21.09;44.77;101596.44;7836474;28;20518;-70
2021/07/08 17:38:05;;;;;;;2.45;1.33;;;;;;;21.01;45.17;101588.34;7840766;28;20373;-69
2021/07/08 17:41:55;;;;;;;1.75;1.00;;;;;;;21.00;44.91;101603.56;7838460;28;20035;-70
2021/07/08 17:45:46;;;;;;;1.85;1.10;;;;;;;20.97;45.09;101605.69;7839311;28;20042;-69
2021/07/08 17:49:37;;;;;;;2.88;1.30;;;;;;;20.93;45.12;101590.94;7841534;28;20055;-71
2021/07/08 17:53:28;;;;;;;1.67;1.13;;;;;;;20.92;45.11;101594.63;7840760;28;20027;-71
2021/07/08 17:57:19;;;;;;;2.38;1.00;;;;;;;20.86;45.29;101590.72;7842107;28;20039;-70
2021/07/08 18:01:12;;;;;;;2.85;1.13;;;;;;;20.83;45.63;101590.19;7839522;28;20038;-70
2021/07/08 18:05:04;;;;;;;1.50;1.10;;;;;;;20.78;45.41;101603.16;7839465;29;20098;-71